Flight Track Log - Related Links

Times and Time Zones

All times are in EDT time to prevent confusion due to time zone crossing. See the N4467D flight status page for this flight to view local times or setup timezone preferences in your user account.

Time Position Orientation Groundspeed Altitude Reporting Facility
EDT Latitude Longitude Course Direction KTS MPH feet Rate Location/Type
Wed 11:02:24 AM 33.1500 -96.5833 222° Southwest 128 147 1,300  Level Dallas TRACON
Wed 11:02:43 AM 33.1417 -96.5922 176° South 128 147 1,600 835 Climbing Fort Center
Wed 11:03:43 AM 33.1125 -96.5900 168° South 123 142 2,400 700 Climbing Fort Center
Wed 11:04:43 AM 33.0833 -96.5828 103° East 123 142 3,000 650 Climbing Fort Center
Wed 11:05:43 AM 33.0744 -96.5358 97° East 113 130 3,700 750 Climbing Fort Center
Wed 11:06:43 AM 33.0700 -96.4911 100° East 135 155 4,500 850 Climbing Fort Center
Wed 11:07:43 AM 33.0633 -96.4467 102° East 135 155 5,400 800 Climbing Fort Center
Wed 11:08:43 AM 33.0547 -96.3997 104° East 140 161 6,100 750 Climbing Fort Center
Wed 11:09:43 AM 33.0461 -96.3578 101° East 140 161 6,900 750 Climbing Fort Center
Wed 11:10:43 AM 33.0394 -96.3156 103° East 135 155 7,600 750 Climbing Fort Center
Wed 11:11:43 AM 33.0306 -96.2686 103° East 141 162 8,400 800 Climbing Fort Center
Wed 11:12:43 AM 33.0219 -96.2242 106° East 141 162 9,200 800 Climbing Fort Center
Wed 11:13:43 AM 33.0111 -96.1797 103° East 141 162 10,000 800 Climbing Fort Center
Wed 11:14:43 AM 33.0022 -96.1328 103° East 141 162 10,800 750 Climbing Fort Center
Wed 11:15:43 AM 32.9933 -96.0883 105° East 141 162 11,500 700 Climbing Fort Center
Wed 11:16:43 AM 32.9825 -96.0389 106° East 141 162 12,200 750 Climbing Fort Center
Wed 11:17:43 AM 32.9714 -95.9919 103° East 141 162 13,000 700 Climbing Fort Center
Wed 11:18:43 AM 32.9625 -95.9453 105° East 141 162 13,600 650 Climbing Fort Center
Wed 11:19:43 AM 32.9517 -95.8958 102° East 147 169 14,300 650 Climbing Fort Center
Wed 11:20:43 AM 32.9425 -95.8439 104° East 153 176 14,900 700 Climbing Fort Center
Wed 11:21:43 AM 32.9314 -95.7922 104° East 153 176 15,700 700 Climbing Fort Center
Wed 11:22:43 AM 32.9203 -95.7406 103° East 153 176 16,300 650 Climbing Fort Center
Wed 11:23:43 AM 32.9114 -95.6936 102° East 153 176 17,000 650 Climbing Fort Center
Wed 11:24:43 AM 32.9022 -95.6419 96° East 153 176 17,600 550 Climbing Fort Center
Wed 11:25:43 AM 32.8975 -95.5850 106° East 164 189 18,100 600 Climbing Fort Center
Wed 11:26:43 AM 32.8839 -95.5283 101° East 169 194 18,800 650 Climbing Fort Center
Wed 11:27:43 AM 32.8747 -95.4717 101° East 169 194 19,400 600 Climbing Fort Center
Wed 11:28:43 AM 32.8656 -95.4175 106° East 169 194 20,000 550 Climbing Fort Center
Wed 11:29:43 AM 32.8522 -95.3608 101° East 169 194 20,500 450 Climbing Fort Center
Wed 11:30:43 AM 32.8428 -95.3017 113° Southeast 170 196 20,900 250 Climbing Fort Center
Wed 11:31:43 AM 32.8208 -95.2406 109° East 181 208 21,000 50 Climbing Fort Center
Wed 11:32:43 AM 32.7989 -95.1669 103° East 205 236 21,000  Level Fort Center
Wed 11:33:43 AM 32.7850 -95.0981 105° East 215 247 21,000  Level Fort Center
Wed 11:34:43 AM 32.7692 -95.0269 102° East 215 247 21,000  Level Fort Center
Wed 11:35:43 AM 32.7572 -94.9581 105° East 220 253 21,000  Level Fort Center
Wed 11:36:43 AM 32.7414 -94.8892 105° East 220 253 21,000  Level Fort Center
Wed 11:37:43 AM 32.7253 -94.8181 103° East 220 253 21,000  Level Fort Center
Wed 11:38:43 AM 32.7111 -94.7469 103° East 220 253 21,000  Level Fort Center
Wed 11:39:43 AM 32.6972 -94.6758 104° East 220 253 21,000  Level Fort Center
Wed 11:40:43 AM 32.6831 -94.6069 103° East 220 253 21,000  Level Fort Center
Wed 11:41:43 AM 32.6689 -94.5358 107° East 220 253 21,000  Level Fort Center
Wed 11:42:43 AM 32.6506 -94.4650 105° East 220 253 21,000  Level Fort Center
Wed 11:43:43 AM 32.6344 -94.3939 107° East 220 253 21,000  Level Fort Center
Wed 11:44:43 AM 32.6158 -94.3231 104° East 220 253 21,000  Level Fort Center
Wed 11:45:43 AM 32.6017 -94.2544 103° East 220 253 21,000  Level Fort Center
Wed 11:46:43 AM 32.5875 -94.1836 103° East 220 253 21,000  Level Fort Center
Wed 11:47:43 AM 32.5731 -94.1125 105° East 220 253 21,000  Level Fort Center
Wed 11:48:43 AM 32.5567 -94.0417 105° East 220 253 21,000  Level Fort Center
Wed 11:49:43 AM 32.5400 -93.9683 102° East 220 253 21,000  Level Fort Center
Wed 11:50:43 AM 32.5275 -93.8997 105° East 220 253 21,000  Level Fort Center
Wed 11:51:43 AM 32.5108 -93.8267 104° East 220 253 21,000  Level Fort Center
Wed 11:52:43 AM 32.4964 -93.7558 105° East 220 253 21,000  Level Fort Center
Wed 11:53:43 AM 32.4797 -93.6825 103° East 225 259 21,000  Level Fort Center
Wed 11:54:43 AM 32.4650 -93.6094 104° East 220 253 21,000  Level Fort Center
Wed 11:55:43 AM 32.4503 -93.5386 105° East 220 253 21,000  Level Fort Center
Wed 11:56:43 AM 32.4333 -93.4656 109° East 220 253 21,000  Level Fort Center
Wed 11:57:43 AM 32.4144 -93.3997 103° East 220 253 21,000  Level Fort Center
Wed 11:58:43 AM 32.3997 -93.3242 104° East 220 253 21,000  Level Fort Center
Wed 11:59:43 AM 32.3847 -93.2536 106° East 220 253 21,000  Level Fort Center
Wed 12:00:43 PM 32.3678 -93.1831 107° East 220 253 21,000  Level Fort Center
Wed 12:01:43 PM 32.3486 -93.1100 106° East 220 253 21,000  Level Fort Center
Wed 12:01:56 PM 32.3456 -93.0975 106° East 220 253 21,000  Level Houston Center
Wed 12:03:08 PM 32.3275 -93.0236 106° East 220 253 21,000  Level Houston Center
Wed 12:04:08 PM 32.3075 -92.9400 104° East 226 260 21,000  Level Houston Center
Wed 12:05:08 PM 32.2917 -92.8636 108° East 226 260 21,000  Level Houston Center
Wed 12:06:08 PM 32.2733 -92.7947 106° East 226 260 21,000  Level Houston Center
Wed 12:07:08 PM 32.2553 -92.7208 104° East 226 260 21,000  Level Houston Center
Wed 12:08:08 PM 32.2392 -92.6472 104° East 231 266 21,000  Level Houston Center
Wed 12:09:08 PM 32.2231 -92.5733 107° East 224 258 21,000  Level Houston Center
Wed 12:10:08 PM 32.2047 -92.5019 105° East 224 258 21,000  Level Houston Center
Wed 12:11:08 PM 32.1883 -92.4308 106° East 224 258 21,000  Level Houston Center
Wed 12:12:08 PM 32.1742 -92.3744 104° East 224 258 21,000 50 Level Houston Center
Wed 12:13:08 PM 32.1558 -92.2861 107° East 224 258 21,100 50 Climbing Houston Center
Wed 12:14:08 PM 32.1375 -92.2147 105° East 224 258 21,100  Level Houston Center
Wed 12:15:08 PM 32.1211 -92.1411 105° East 224 258 21,100  Level Houston Center
Wed 12:16:08 PM 32.1044 -92.0700 107° East 224 258 21,100  Level Houston Center
Wed 12:17:08 PM 32.0858 -91.9992 105° East 224 258 21,100  Level Houston Center
Wed 12:18:05 PM 32.0714 -91.9336 107° East 236 272 21,100  Level Memphis Center
Wed 12:19:05 PM 32.0514 -91.8572 107° East 244 281 21,100  Level Memphis Center
Wed 12:20:05 PM 32.0333 -91.7861 103° East 238 274 21,100  Level Memphis Center
Wed 12:21:05 PM 32.0194 -91.7172 107° East 231 266 21,100  Level Memphis Center
Wed 12:22:05 PM 31.9994 -91.6408 105° East 225 259 21,100  Level Memphis Center
Wed 12:23:05 PM 31.9833 -91.5697 108° East 225 259 21,100  Level Memphis Center
Wed 12:24:05 PM 31.9633 -91.4983 105° East 225 259 21,100  Level Memphis Center
Wed 12:25:05 PM 31.9453 -91.4175 106° East 232 267 21,100  Level Memphis Center
Wed 12:26:05 PM 31.9289 -91.3486 107° East 226 260 21,100  Level Memphis Center
Wed 12:27:08 PM 31.9128 -91.2869 105° East 223 257 21,100  Level Houston Center
Wed 12:28:08 PM 31.8958 -91.2114 105° East 228 262 21,100 -50 Level Houston Center
Wed 12:29:08 PM 31.8789 -91.1381 107° East 228 262 21,000 -50 Descending Houston Center
Wed 12:30:08 PM 31.8597 -91.0650 105° East 228 262 21,000 50 Level Houston Center
Wed 12:31:08 PM 31.8428 -90.9917 110° East 228 262 21,100 50 Climbing Houston Center
Wed 12:32:08 PM 31.8194 -90.9161 103° East 228 262 21,100 -50 Level Houston Center
Wed 12:33:08 PM 31.8067 -90.8503 107° East 222 255 21,000  Descending Houston Center
Wed 12:34:08 PM 31.7872 -90.7747 105° East 227 261 21,100 50 Climbing Houston Center
Wed 12:35:08 PM 31.7703 -90.7017 107° East 227 261 21,100 -50 Level Houston Center
Wed 12:36:08 PM 31.7508 -90.6286 108° East 227 261 21,000 -50 Descending Houston Center
Wed 12:37:08 PM 31.7314 -90.5581 106° East 227 261 21,000 50 Level Houston Center
Wed 12:38:08 PM 31.7142 -90.4875 105° East 227 261 21,100 50 Climbing Houston Center
Wed 12:39:08 PM 31.6969 -90.4122 108° East 227 261 21,100  Level Houston Center
Wed 12:40:08 PM 31.6775 -90.3417 107° East 227 261 21,100  Level Houston Center
Wed 12:41:08 PM 31.6581 -90.2689 106° East 227 261 21,100  Level Houston Center
Wed 12:42:08 PM 31.6406 -90.1958 108° East 227 261 21,100  Level Houston Center
Wed 12:43:08 PM 31.6208 -90.1231 107° East 227 261 21,100  Level Houston Center
Wed 12:44:08 PM 31.6011 -90.0478 105° East 227 261 21,100  Level Houston Center
Wed 12:45:08 PM 31.5836 -89.9703 110° East 227 261 21,100  Level Houston Center
Wed 12:46:08 PM 31.5619 -89.9000 105° East 227 261 21,100  Level Houston Center
Wed 12:47:08 PM 31.5442 -89.8247 108° East 227 261 21,100  Level Houston Center
Wed 12:48:08 PM 31.5244 -89.7519 107° East 227 261 21,100  Level Houston Center
Wed 12:49:08 PM 31.5044 -89.6769 105° East 227 261 21,100  Level Houston Center
Wed 12:50:08 PM 31.4867 -89.6019 108° East 227 261 21,100  Level Houston Center
Wed 12:51:08 PM 31.4667 -89.5292 104° East 233 268 21,100  Level Houston Center
Wed 12:52:08 PM 31.4511 -89.4567 108° East 233 268 21,100  Level Houston Center
Wed 12:53:08 PM 31.4311 -89.3842 106° East 233 268 21,100  Level Houston Center
Wed 12:54:08 PM 31.4131 -89.3117 111° Southeast 233 268 21,100  Level Houston Center
Wed 12:55:08 PM 31.3889 -89.2392 110° East 228 262 21,100  Level Houston Center
Wed 12:56:08 PM 31.3667 -89.1669 108° East 228 262 21,100  Level Houston Center
Wed 12:57:08 PM 31.3464 -89.0919 107° East 233 268 21,100 -50 Level Houston Center
Wed 12:58:08 PM 31.3261 -89.0147 106° East 233 268 21,000  Descending Houston Center
Wed 12:59:08 PM 31.3081 -88.9400 106° East 233 268 21,100 50 Climbing Houston Center
Wed 01:00:08 PM 31.2900 -88.8675 107° East 233 268 21,100  Level Houston Center
Wed 01:01:08 PM 31.2717 -88.7953 107° East 233 268 21,100  Level Houston Center
Wed 01:02:08 PM 31.2514 -88.7181 106° East 233 268 21,100  Level Houston Center
Wed 01:03:08 PM 31.2331 -88.6458 108° East 238 274 21,100  Level Houston Center
Wed 01:04:08 PM 31.2125 -88.5736 108° East 238 274 21,100 -50 Level Houston Center
Wed 01:05:08 PM 31.1922 -88.5014 108° East 238 274 21,000 -50 Descending Houston Center
Wed 01:06:08 PM 31.1717 -88.4294 108° East 233 268 21,000 50 Level Houston Center
Wed 01:07:08 PM 31.1511 -88.3572 107° East 233 268 21,100 50 Climbing Houston Center
Wed 01:08:08 PM 31.1325 -88.2850 109° East 228 262 21,100  Level Houston Center
Wed 01:09:08 PM 31.1100 -88.2108 106° East 234 269 21,100  Level Houston Center
Wed 01:10:08 PM 31.0914 -88.1364 110° East 241 277 21,100  Level Houston Center
Wed 01:10:37 PM 31.0822 -88.1075 110° East 240 276 21,100  Level Jacksonville Center
Wed 01:11:37 PM 31.0603 -88.0358 108° East 233 268 21,100  Level Jacksonville Center
Wed 01:12:37 PM 31.0400 -87.9644 108° East 233 268 21,100  Level Jacksonville Center
Wed 01:13:37 PM 31.0200 -87.8931 108° East 228 262 21,100  Level Jacksonville Center
Wed 01:14:37 PM 30.9997 -87.8217 106° East 233 268 21,100  Level Jacksonville Center
Wed 01:15:37 PM 30.9817 -87.7506 108° East 233 268 21,100  Level Jacksonville Center
Wed 01:16:37 PM 30.9614 -87.6792 108° East 233 268 21,100  Level Jacksonville Center
Wed 01:17:37 PM 30.9411 -87.6081 104° East 233 268 21,100  Level Jacksonville Center
Wed 01:18:37 PM 30.9250 -87.5347 98° East 233 268 21,100  Level Jacksonville Center
Wed 01:19:37 PM 30.9153 -87.4567 95° East 233 268 21,100  Level Jacksonville Center
Wed 01:20:37 PM 30.9097 -87.3789 95° East 233 268 21,100  Level Jacksonville Center
Wed 01:21:37 PM 30.9042 -87.3036 93° East 238 274 21,100  Level Jacksonville Center
Wed 01:22:37 PM 30.9006 -87.2261 93° East 238 274 21,100  Level Jacksonville Center
Wed 01:23:37 PM 30.8967 -87.1508 93° East 238 274 21,100 -50 Level Jacksonville Center
Wed 01:24:37 PM 30.8931 -87.0731 93° East 238 274 21,000 50 Descending Jacksonville Center
Wed 01:25:37 PM 30.8894 -86.9956 101° East 238 274 21,200 50 Climbing Jacksonville Center
Wed 01:26:37 PM 30.8772 -86.9200 92° East 233 268 21,100 -50 Descending Jacksonville Center
Wed 01:27:37 PM 30.8753 -86.8450 93° East 233 268 21,100 -50 Level Jacksonville Center
Wed 01:28:37 PM 30.8714 -86.7650 95° East 239 275 21,000 -50 Descending Jacksonville Center
Wed 01:29:37 PM 30.8656 -86.6825 97° East 234 269 21,000 50 Level Jacksonville Center
Wed 01:30:37 PM 30.8575 -86.6069 94° East 234 269 21,100 50 Climbing Jacksonville Center
Wed 01:31:36 PM 30.8533 -86.5319 92° East 234 269 21,100 -50 Level Jacksonville Center
Wed 01:32:37 PM 30.8514 -86.4544 96° East 234 269 21,000 -50 Descending Jacksonville Center
Wed 01:33:37 PM 30.8450 -86.3792 92° East 234 269 21,000 50 Level Jacksonville Center
Wed 01:34:37 PM 30.8431 -86.3017 94° East 234 269 21,100 50 Climbing Jacksonville Center
Wed 01:35:37 PM 30.8389 -86.2267 92° East 234 269 21,100  Level Jacksonville Center
Wed 01:36:37 PM 30.8367 -86.1514 92° East 234 269 21,100  Level Jacksonville Center
Wed 01:37:37 PM 30.8344 -86.0739 94° East 234 269 21,100  Level Jacksonville Center
Wed 01:38:37 PM 30.8300 -85.9989 92° East 234 269 21,100  Level Jacksonville Center
Wed 01:39:37 PM 30.8275 -85.9214 92° East 234 269 21,100  Level Jacksonville Center
Wed 01:40:37 PM 30.8253 -85.8486 92° East 234 269 21,100  Level Jacksonville Center
Wed 01:41:37 PM 30.8228 -85.7711 94° East 234 269 21,100 -50 Level Jacksonville Center
Wed 01:42:37 PM 30.8181 -85.6961 94° East 234 269 21,000 -50 Descending Jacksonville Center
Wed 01:43:37 PM 30.8136 -85.6211 94° East 234 269 21,000 50 Level Jacksonville Center
Wed 01:44:37 PM 30.8089 -85.5436 96° East 239 275 21,100 50 Climbing Jacksonville Center
Wed 01:45:37 PM 30.8022 -85.4658 92° East 239 275 21,100  Level Jacksonville Center
Wed 01:46:37 PM 30.7994 -85.3883 94° East 239 275 21,100  Level Jacksonville Center
Wed 01:47:37 PM 30.7947 -85.3108 94° East 239 275 21,100 -50 Level Jacksonville Center
Wed 01:48:37 PM 30.7900 -85.2311 95° East 239 275 21,000  Descending Jacksonville Center
Wed 01:49:37 PM 30.7850 -85.1583 116° Southeast 239 275 21,100  Climbing Jacksonville Center
Wed 01:50:37 PM 30.7569 -85.0900 127° Southeast 229 264 21,000 -50 Descending Jacksonville Center
Wed 01:51:37 PM 30.7203 -85.0336 129° Southeast 221 254 21,000 50 Level Jacksonville Center
Wed 01:52:37 PM 30.6797 -84.9747 129° Southeast 226 260 21,100 50 Climbing Jacksonville Center
Wed 01:53:37 PM 30.6389 -84.9158 130° Southeast 231 266 21,100 -50 Level Jacksonville Center
Wed 01:54:37 PM 30.6000 -84.8619 133° Southeast 231 266 21,000 -50 Descending Jacksonville Center
Wed 01:55:36 PM 30.5569 -84.8081 135° Southeast 231 266 21,000  Level Jacksonville Center
Wed 01:56:37 PM 30.5139 -84.7589 135° Southeast 225 259 21,000  Level Jacksonville Center
Wed 01:57:37 PM 30.4708 -84.7097 137° Southeast 219 252 21,000  Level Jacksonville Center
Wed 01:58:36 PM 30.4275 -84.6633 135° Southeast 213 245 21,000  Level Jacksonville Center
Wed 01:59:37 PM 30.3844 -84.6142 133° Southeast 213 245 21,000  Level Jacksonville Center
Wed 02:00:37 PM 30.3433 -84.5631 133° Southeast 213 245 21,000 50 Level Jacksonville Center
Wed 02:01:37 PM 30.3022 -84.5117 125° Southeast 213 245 21,100  Climbing Jacksonville Center
Wed 02:02:37 PM 30.2653 -84.4511 102° East 224 258 21,000 -50 Descending Jacksonville Center
Wed 02:03:37 PM 30.2517 -84.3764 97° East 224 258 21,000  Level Jacksonville Center
Wed 02:04:36 PM 30.2442 -84.3017 100° East 230 265 21,000  Level Jacksonville Center
Wed 02:05:37 PM 30.2325 -84.2269 100° East 230 265 21,000  Level Jacksonville Center
Wed 02:06:36 PM 30.2206 -84.1497 95° East 236 272 21,000  Level Jacksonville Center
Wed 02:07:37 PM 30.2150 -84.0728 95° East 236 272 21,000 50 Level Jacksonville Center
Wed 02:08:37 PM 30.2094 -83.9958 93° East 236 272 21,100 50 Climbing Jacksonville Center
Wed 02:09:37 PM 30.2061 -83.9164 95° East 236 272 21,100  Level Jacksonville Center
Wed 02:10:37 PM 30.2003 -83.8419 108° East 236 272 21,100 -50 Level Jacksonville Center
Wed 02:11:37 PM 30.1800 -83.7697 115° Southeast 231 266 21,000 -252 Descending Jacksonville Center
Wed 02:12:36 PM 30.1533 -83.7044 119° Southeast 231 266 20,600 -450 Descending Jacksonville Center
Wed 02:13:37 PM 30.1203 -83.6347 119° Southeast 230 265 20,100 -500 Descending Jacksonville Center
Wed 02:14:36 PM 30.0872 -83.5647 116° Southeast 240 276 19,600 -550 Descending Jacksonville Center
Wed 02:15:37 PM 30.0583 -83.4950 122° Southeast 240 276 19,000 -545 Descending Jacksonville Center
Wed 02:16:37 PM 30.0211 -83.4275 130° Southeast 247 284 18,500 -500 Descending Jacksonville Center
Wed 02:17:37 PM 29.9797 -83.3697 153° Southeast 247 284 18,000 -500 Descending Jacksonville Center
Wed 02:18:37 PM 29.9256 -83.3383 160° South 230 265 17,500 -454 Descending Jacksonville Center
Wed 02:19:36 PM 29.8692 -83.3142 159° South 224 258 17,100 -252 Descending Jacksonville Center
Wed 02:20:36 PM 29.8150 -83.2900 154° Southeast 219 252 17,000 -50 Descending Jacksonville Center
Wed 02:21:36 PM 29.7628 -83.2611 158° South 214 246 17,000  Level Jacksonville Center
Wed 02:22:37 PM 29.7169 -83.2394 157° South 208 239 17,000 -50 Level Jacksonville Center
Wed 02:23:37 PM 29.6669 -83.2153 161° South 208 239 16,900 -300 Descending Jacksonville Center
Wed 02:24:37 PM 29.6106 -83.1936 174° South 208 239 16,400 -500 Descending Jacksonville Center
Wed 02:25:37 PM 29.5481 -83.1861 172° South 214 246 15,900 -500 Descending Jacksonville Center
Wed 02:26:37 PM 29.4875 -83.1764 174° South 214 246 15,400 -450 Descending Jacksonville Center
Wed 02:27:37 PM 29.4292 -83.1692 191° South 214 246 15,000 -151 Descending Jacksonville Center
Wed 02:28:36 PM 29.3769 -83.1808 191° South 209 241 15,100  Climbing Jacksonville Center
Wed 02:29:37 PM 29.3247 -83.1928 197° South 199 229 15,000 -50 Descending Jacksonville Center
Wed 02:30:37 PM 29.2767 -83.2092 194° South 194 223 15,000  Level Jacksonville Center
Wed 02:31:36 PM 29.2286 -83.2233 195° South 189 217 15,000  Level Jacksonville Center
Wed 02:32:37 PM 29.1825 -83.2375 192° South 179 206 15,000 -50 Level Jacksonville Center
Wed 02:33:37 PM 29.1325 -83.2492 184° South 179 206 14,900 -350 Descending Jacksonville Center
Wed 02:34:37 PM 29.0761 -83.2536 180° South 191 220 14,300 -550 Descending Jacksonville Center
Wed 02:35:37 PM 29.0217 -83.2536 165° South 197 227 13,800 -550 Descending Jacksonville Center
Wed 02:36:37 PM 28.9675 -83.2367 175° South 197 227 13,200 -550 Descending Jacksonville Center
Wed 02:37:37 PM 28.9175 -83.2317 180° South 197 227 12,700 -500 Descending Jacksonville Center
Wed 02:38:37 PM 28.8653 -83.2317 187° South 192 221 12,200 -500 Descending Jacksonville Center
Wed 02:39:37 PM 28.8172 -83.2386 178° South 187 215 11,700 -600 Descending Jacksonville Center
Wed 02:40:37 PM 28.7650 -83.2361 153° Southeast 182 209 11,000 -650 Descending Jacksonville Center
Wed 02:41:37 PM 28.7192 -83.2097 135° Southeast 182 209 10,400 -700 Descending Jacksonville Center
Wed 02:42:37 PM 28.6797 -83.1647 138° Southeast 182 209 9,600 -857 Descending Jacksonville Center
Wed 02:43:36 PM 28.6358 -83.1197 143° Southeast 196 226 8,700 -706 Descending Jacksonville Center
Wed 02:44:36 PM 28.5942 -83.0842 178° South 196 226 8,200 -651 Descending Jacksonville Center
Wed 02:44:59 PM 28.5667 -83.0833 180° South 194 223 7,800 -566 Descending Tampa TRACON
Wed 02:45:29 PM 28.5500 -83.0833 180° South 200 230 7,700 -333 Descending Tampa TRACON
Wed 02:46:29 PM 28.5000 -83.0833 210° Southwest 172 198 7,300 -850 Descending Tampa TRACON
Wed 02:47:29 PM 28.4500 -83.1167 221° Southwest 196 226 6,000 -1,300 Descending Tampa TRACON
Wed 02:48:30 PM 28.4333 -83.1333 360° North 199 229 -5,902 Descending Tampa TRACON
Wed 02:49:36 PM 28.4333 -83.1333 360° North 199 229  Level Tampa TRACON
Wed 02:50:30 PM 28.4333 -83.1333 360° North 199 229  Level Tampa TRACON
Wed 02:51:36 PM 28.4333 -83.1333 360° North 199 229  Level Tampa TRACON
Wed 02:52:36 PM 28.4333 -83.1333 360° North 199 229  Level Tampa TRACON
Wed 02:53:48 PM 28.4333 -83.1333 360° North 199 229  Level Tampa TRACON
Wed 02:54:36 PM 28.4333 -83.1333 360° North 199 229  Level Tampa TRACON
Wed 02:55:30 PM 28.4333 -83.1333 360° North 199 229  Level Tampa TRACON
Wed 02:56:42 PM 28.4333 -83.1333 360° North 199 229  Level Tampa TRACON
Wed 02:57:36 PM 28.4333 -83.1333 360° North 199 229  Level Tampa TRACON
Wed 02:58:36 PM 28.4333 -83.1333 360° North 199 229  Level Tampa TRACON
Wed 02:59:36 PM 28.4333 -83.1333 360° North 199 229  Level Tampa TRACON
Wed 03:00:36 PM 28.4333 -83.1333 360° North 199 229  Level Tampa TRACON
Wed 03:01:30 PM 28.4333 -83.1333 360° North 199 229  Level Tampa TRACON
Wed 03:02:30 PM 28.4333 -83.1333 360° North 199 229  Level Tampa TRACON
Wed 03:03:24 PM 28.4333 -83.1333 360° North 199 229  Level Tampa TRACON
Wed 03:04:24 PM 28.4333 -83.1333 360° North 199 229  Level Tampa TRACON
Wed 03:05:24 PM 28.4333 -83.1333 360° North 199 229  Level Tampa TRACON
Wed 03:06:24 PM 28.4333 -83.1333 360° North 199 229  Level Tampa TRACON
Wed 03:07:30 PM 28.4333 -83.1333 360° North 199 229  Level Tampa TRACON
Wed 03:08:24 PM 28.4333 -83.1333 360° North 199 229  Level Tampa TRACON
Wed 03:09:24 PM 28.4333 -83.1333 360° North 199 229  Level Tampa TRACON
Wed 03:10:24 PM 28.4333 -83.1333 360° North 199 229  Level Tampa TRACON
Wed 03:11:24 PM 28.4333 -83.1333 360° North 199 229  Level Tampa TRACON
Wed 03:12:30 PM 28.4333 -83.1333 360° North 199 229  Level Tampa TRACON
Wed 03:13:30 PM 28.4333 -83.1333 360° North 199 229  Level Tampa TRACON
Wed 03:14:30 PM 28.4333 -83.1333 360° North 199 229  Level Tampa TRACON
Wed 03:15:24 PM 28.4333 -83.1333 360° North 199 229  Level Tampa TRACON
Wed 03:16:30 PM 28.4333 -83.1333 360° North 199 229  Level Tampa TRACON
Wed 03:17:30 PM 28.4333 -83.1333 360° North 199 229  Level Tampa TRACON
Wed 03:18:30 PM 28.4333 -83.1333 360° North 199 229  Level Tampa TRACON
Wed 03:19:30 PM 28.4333 -83.1333 360° North 199 229  Level Tampa TRACON
Wed 03:20:36 PM 28.4333 -83.1333 360° North 199 229  Level Tampa TRACON
Wed 03:21:42 PM 28.4333 -83.1333 360° North 199 229  Level Tampa TRACON
Wed 03:22:36 PM 28.4333 -83.1333 360° North 199 229  Level Tampa TRACON
Wed 03:23:42 PM 28.4333 -83.1333 360° North 199 229  Level Tampa TRACON
Wed 03:24:42 PM 28.4333 -83.1333 360° North 199 229  Level Tampa TRACON
Wed 03:25:43 PM 28.4333 -83.1333 360° North 199 229  Level Tampa TRACON
Wed 03:26:43 PM 28.4333 -83.1333 360° North 199 229  Level Tampa TRACON
Wed 03:27:37 PM 28.4333 -83.1333 360° North 199 229  Level Tampa TRACON
Wed 03:28:37 PM 28.4333 -83.1333 360° North 199 229  Level Tampa TRACON
Wed 03:29:37 PM 28.4333 -83.1333 360° North 199 229  Level Tampa TRACON
Wed 03:30:37 PM 28.4333 -83.1333 360° North 199 229  Level Tampa TRACON
Wed 03:31:37 PM 28.4333 -83.1333 360° North 199 229  Level Tampa TRACON
Wed 03:32:37 PM 28.4333 -83.1333 360° North 199 229  Level Tampa TRACON
Wed 03:33:37 PM 28.4333 -83.1333 360° North 199 229  Level Tampa TRACON
Wed 03:34:37 PM 28.4333 -83.1333 360° North 199 229  Level Tampa TRACON
Wed 03:35:37 PM 28.4333 -83.1333 360° North 199 229  Level Tampa TRACON
Wed 03:36:37 PM 28.4333 -83.1333 360° North 199 229  Level Tampa TRACON
Wed 03:37:31 PM 28.4333 -83.1333 360° North 199 229  Level Tampa TRACON
Wed 03:38:43 PM 28.4333 -83.1333 360° North 199 229  Level Tampa TRACON
Wed 03:39:43 PM 28.4333 -83.1333 360° North 199 229  Level Tampa TRACON
Wed 03:40:43 PM 28.4333 -83.1333 360° North 199 229  Level Tampa TRACON
Wed 03:41:43 PM 28.4333 -83.1333 360° North 199 229  Level Tampa TRACON
Wed 03:42:43 PM 28.4333 -83.1333 360° North 199 229  Level Tampa TRACON
Wed 03:43:43 PM 28.4333 -83.1333 360° North 199 229  Level Tampa TRACON
Wed 03:44:43 PM 28.4333 -83.1333 360° North 199 229  Level Tampa TRACON
Wed 03:45:43 PM 28.4333 -83.1333 360° North 199 229  Level Tampa TRACON
Wed 03:46:43 PM 28.4333 -83.1333 360° North 199 229  Level Tampa TRACON
Wed 03:47:43 PM 28.4333 -83.1333 360° North 199 229  Level Tampa TRACON
Wed 03:48:44 PM 28.4333 -83.1333 360° North 199 229  Level Tampa TRACON
Wed 03:49:38 PM 28.4333 -83.1333 360° North 199 229  Level Tampa TRACON
Wed 03:50:38 PM 28.4333 -83.1333 360° North 199 229  Level Tampa TRACON
Wed 03:51:38 PM 28.4333 -83.1333 360° North 199 229  Level Tampa TRACON
Wed 03:52:38 PM 28.4333 -83.1333 360° North 199 229  Level Tampa TRACON
Wed 03:53:38 PM 28.4333 -83.1333 360° North 199 229  Level Tampa TRACON
Wed 03:54:38 PM 28.4333 -83.1333 360° North 199 229  Level Tampa TRACON
Wed 03:55:38 PM 28.4333 -83.1333 360° North 199 229  Level Tampa TRACON
Wed 03:56:44 PM 28.4333 -83.1333 360° North 199 229  Level Tampa TRACON
Wed 03:57:38 PM 28.4333 -83.1333 360° North 199 229  Level Tampa TRACON
Wed 03:58:38 PM 28.4333 -83.1333 360° North 199 229  Level Tampa TRACON
Wed 03:59:44 PM 28.4333 -83.1333 360° North 199 229  Level Tampa TRACON
Wed 04:00:44 PM 28.4333 -83.1333 360° North 199 229  Level Tampa TRACON
Wed 04:01:44 PM 28.4333 -83.1333 360° North 199 229  Level Tampa TRACON
Wed 04:02:44 PM 28.4333 -83.1333 360° North 199 229  Level Tampa TRACON
Wed 04:03:44 PM 28.4333 -83.1333 360° North 199 229  Level Tampa TRACON
Wed 04:04:38 PM 28.4333 -83.1333 360° North 199 229  Level Tampa TRACON
Wed 04:05:38 PM 28.4333 -83.1333 360° North 199 229  Level Tampa TRACON
Wed 04:06:38 PM 28.4333 -83.1333 360° North 199 229  Level Tampa TRACON
Wed 04:07:33 PM 28.4333 -83.1333 360° North 199 229  Level Tampa TRACON
Wed 04:08:33 PM 28.4333 -83.1333 360° North 199 229  Level Tampa TRACON
Wed 04:09:33 PM 28.4333 -83.1333 360° North 199 229  Level Tampa TRACON
Wed 04:10:33 PM 28.4333 -83.1333 360° North 199 229  Level Tampa TRACON
Wed 04:11:39 PM 28.4333 -83.1333 360° North 199 229  Level Tampa TRACON
Wed 04:12:27 PM 28.4333 -83.1333 360° North 199 229  Level Tampa TRACON
Wed 04:13:33 PM 28.4333 -83.1333 360° North 199 229  Level Tampa TRACON
Wed 04:14:33 PM 28.4333 -83.1333 360° North 199 229  Level Tampa TRACON
Wed 04:15:33 PM 28.4333 -83.1333 360° North 199 229  Level Tampa TRACON
Wed 04:16:33 PM 28.4333 -83.1333 360° North 199 229  Level Tampa TRACON
Wed 04:17:39 PM 28.4333 -83.1333 360° North 199 229  Level Tampa TRACON
Wed 04:18:45 PM 28.4333 -83.1333 360° North 199 229  Level Tampa TRACON
Wed 04:19:45 PM 28.4333 -83.1333 360° North 199 229  Level Tampa TRACON
Wed 04:20:45 PM 28.4333 -83.1333 360° North 199 229  Level Tampa TRACON
Wed 04:21:45 PM 28.4333 -83.1333 360° North 199 229  Level Tampa TRACON

Login

Don't have an account? Register now (free) for customized features, flight alerts, and more!